QTR40N OTHH-VRMM
Flight info
| Callsign | QTR40N |
|---|---|
| Flight time | N/A |
| Altitude | 35000 |
| Route | BUNDU3E/34R BUNDU B415 SIXIV N318 TOLDA P570 KITAL L894 ELBET ELBET1A |
| Aircraft | B77W/H-SDE1E2E3FGHIJ2J3J4J5M1RWXY/LB1D1 |
Departure
| Time | 2026-02-18 14:27 |
|---|---|
| Airport | Hamad International Airport (OTHH) |
Arrival
| Time | N/A |
|---|---|
| Airport | Velana International Airport (VRMM) |
| Time | Latitude | Longitude | Altitude | Speed | Heading |
|---|---|---|---|---|---|
| 2026-02-18 14:04 | 25.25962 | 51.60881 | 27 ft | 0 kts | 69° |
| 2026-02-18 14:20 | 25.25962 | 51.60880 | 27 ft | 2 kts | 69° |
| 2026-02-18 14:21 | 25.25949 | 51.60843 | 6 ft | 3 kts | 69° |
| 2026-02-18 14:21 | 25.25942 | 51.60825 | 32 ft | 3 kts | 69° |
| 2026-02-18 14:21 | 25.25936 | 51.60807 | 25 ft | 2 kts | 69° |
| 2026-02-18 14:22 | 25.25932 | 51.60796 | 25 ft | 0 kts | 69° |
| 2026-02-18 14:24 | 25.25931 | 51.60813 | 27 ft | 1 kts | 103° |
| 2026-02-18 14:24 | 25.25920 | 51.60827 | 27 ft | 2 kts | 141° |
| 2026-02-18 14:24 | 25.25892 | 51.60831 | 27 ft | 7 kts | 181° |
| 2026-02-18 14:25 | 25.25764 | 51.60862 | 27 ft | 10 kts | 158° |
| 2026-02-18 14:25 | 25.25699 | 51.60872 | 27 ft | 8 kts | 197° |
| 2026-02-18 14:25 | 25.25654 | 51.60817 | 27 ft | 9 kts | 244° |
| 2026-02-18 14:26 | 25.25633 | 51.60763 | 27 ft | 0 kts | 246° |
| 2026-02-18 14:26 | 25.25621 | 51.60730 | 27 ft | 10 kts | 249° |
| 2026-02-18 14:26 | 25.25592 | 51.60642 | 27 ft | 15 kts | 256° |
| 2026-02-18 14:26 | 25.25604 | 51.60536 | 27 ft | 9 kts | 303° |
| 2026-02-18 14:27 | 25.25648 | 51.60496 | 30 ft | 9 kts | 333° |
| 2026-02-18 14:27 | 25.25878 | 51.60391 | 29 ft | 84 kts | 338° |
| 2026-02-18 14:27 | 25.26776 | 51.59994 | 33 ft | 196 kts | 338° |
| 2026-02-18 14:27 | 25.28172 | 51.59367 | 1219 ft | 209 kts | 339° |
| 2026-02-18 14:28 | 25.29436 | 51.58696 | 3026 ft | 211 kts | 334° |
| 2026-02-18 14:28 | 25.30855 | 51.58062 | 3699 ft | 227 kts | 339° |
| 2026-02-18 14:28 | 25.32412 | 51.57438 | 4056 ft | 255 kts | 339° |
| 2026-02-18 14:28 | 25.34109 | 51.56739 | 4034 ft | 263 kts | 338° |
| 2026-02-18 14:29 | 25.37535 | 51.55247 | 4024 ft | 266 kts | 337° |
| 2026-02-18 14:29 | 25.39263 | 51.54478 | 3995 ft | 269 kts | 337° |
| 2026-02-18 14:29 | 25.40883 | 51.53758 | 4013 ft | 274 kts | 337° |
| 2026-02-18 14:30 | 25.42659 | 51.52975 | 4021 ft | 274 kts | 341° |
| 2026-02-18 14:30 | 25.44539 | 51.52851 | 4355 ft | 277 kts | 18° |
| 2026-02-18 14:30 | 25.46192 | 51.53901 | 5348 ft | 277 kts | 46° |
| 2026-02-18 14:30 | 25.47254 | 51.55650 | 6443 ft | 273 kts | 72° |
| 2026-02-18 14:31 | 25.47521 | 51.57690 | 7445 ft | 270 kts | 96° |
| 2026-02-18 14:31 | 25.46998 | 51.59655 | 8319 ft | 274 kts | 115° |
| 2026-02-18 14:31 | 25.46065 | 51.61573 | 9109 ft | 283 kts | 117° |
| 2026-02-18 14:31 | 25.45094 | 51.63451 | 9676 ft | 290 kts | 117° |
| 2026-02-18 14:32 | 25.44065 | 51.65416 | 9881 ft | 299 kts | 117° |
| 2026-02-18 14:32 | 25.43008 | 51.67432 | 10161 ft | 306 kts | 117° |
| 2026-02-18 14:32 | 25.41919 | 51.69519 | 10269 ft | 321 kts | 117° |
| 2026-02-18 14:32 | 25.40797 | 51.71676 | 10390 ft | 334 kts | 117° |
| 2026-02-18 14:33 | 25.38562 | 51.75994 | 10604 ft | 361 kts | 117° |
| 2026-02-18 14:33 | 25.37299 | 51.78441 | 10847 ft | 371 kts | 117° |
| 2026-02-18 14:33 | 25.36006 | 51.80944 | 11188 ft | 378 kts | 117° |
| 2026-02-18 14:34 | 25.34701 | 51.83474 | 11633 ft | 381 kts | 117° |
| 2026-02-18 14:34 | 25.33382 | 51.86027 | 12131 ft | 383 kts | 117° |
| 2026-02-18 14:34 | 25.32071 | 51.88567 | 12601 ft | 386 kts | 116° |
| 2026-02-18 14:34 | 25.30736 | 51.91155 | 13019 ft | 390 kts | 116° |
| 2026-02-18 14:35 | 25.29385 | 51.93773 | 13444 ft | 393 kts | 116° |
| 2026-02-18 14:35 | 25.28025 | 51.96408 | 13881 ft | 396 kts | 116° |
| 2026-02-18 14:35 | 25.26657 | 51.99055 | 14268 ft | 399 kts | 116° |
| 2026-02-18 14:35 | 25.25273 | 52.01730 | 14671 ft | 401 kts | 116° |
| 2026-02-18 14:36 | 25.23886 | 52.04410 | 15082 ft | 403 kts | 116° |
| 2026-02-18 14:36 | 25.22507 | 52.07075 | 15470 ft | 406 kts | 116° |
| 2026-02-18 14:36 | 25.21101 | 52.09789 | 15864 ft | 408 kts | 116° |
| 2026-02-18 14:36 | 25.19690 | 52.12511 | 16245 ft | 411 kts | 116° |
| 2026-02-18 14:37 | 25.16833 | 52.18019 | 17015 ft | 416 kts | 116° |
| 2026-02-18 14:37 | 25.15391 | 52.20796 | 17390 ft | 418 kts | 116° |
| 2026-02-18 14:37 | 25.13939 | 52.23591 | 17771 ft | 421 kts | 116° |
| 2026-02-18 14:38 | 25.12481 | 52.26396 | 18132 ft | 423 kts | 116° |
| 2026-02-18 14:38 | 25.11010 | 52.29223 | 18477 ft | 426 kts | 117° |
| 2026-02-18 14:38 | 25.09533 | 52.32062 | 18784 ft | 428 kts | 117° |
| 2026-02-18 14:38 | 25.08044 | 52.34920 | 19079 ft | 431 kts | 117° |
| 2026-02-18 14:39 | 25.06547 | 52.37794 | 19384 ft | 433 kts | 117° |
| 2026-02-18 14:39 | 25.05066 | 52.40635 | 19682 ft | 435 kts | 117° |
| 2026-02-18 14:39 | 25.03523 | 52.43592 | 19983 ft | 438 kts | 117° |
| 2026-02-18 14:39 | 25.02032 | 52.46449 | 20262 ft | 440 kts | 117° |
| 2026-02-18 14:40 | 25.00637 | 52.49454 | 20549 ft | 440 kts | 111° |
| 2026-02-18 14:40 | 24.99585 | 52.52507 | 20813 ft | 441 kts | 105° |
| 2026-02-18 14:40 | 24.98655 | 52.55733 | 21086 ft | 443 kts | 105° |
| 2026-02-18 14:40 | 24.97722 | 52.58987 | 21360 ft | 446 kts | 106° |
| 2026-02-18 14:41 | 24.95812 | 52.65483 | 21892 ft | 451 kts | 106° |
| 2026-02-18 14:41 | 24.94850 | 52.68774 | 22151 ft | 452 kts | 104° |
| 2026-02-18 14:41 | 24.93999 | 52.72166 | 22417 ft | 454 kts | 103° |
| 2026-02-18 14:42 | 24.93193 | 52.75490 | 22669 ft | 456 kts | 103° |
| 2026-02-18 14:42 | 24.92369 | 52.78924 | 22909 ft | 459 kts | 103° |
| 2026-02-18 14:42 | 24.91562 | 52.82285 | 23162 ft | 461 kts | 103° |
| 2026-02-18 14:42 | 24.90726 | 52.85749 | 23427 ft | 463 kts | 103° |
| 2026-02-18 14:43 | 24.89893 | 52.89178 | 23641 ft | 465 kts | 103° |
| 2026-02-18 14:43 | 24.89072 | 52.92547 | 23856 ft | 467 kts | 103° |
| 2026-02-18 14:43 | 24.88214 | 52.96056 | 24080 ft | 468 kts | 104° |
| 2026-02-18 14:43 | 24.87366 | 52.99517 | 24287 ft | 470 kts | 104° |
| 2026-02-18 14:44 | 24.86512 | 53.03000 | 24496 ft | 471 kts | 104° |
| 2026-02-18 14:44 | 24.85657 | 53.06486 | 24699 ft | 473 kts | 104° |
| 2026-02-18 14:44 | 24.84796 | 53.09994 | 24896 ft | 474 kts | 104° |
| 2026-02-18 14:44 | 24.83933 | 53.13504 | 25095 ft | 476 kts | 104° |
| 2026-02-18 14:45 | 24.82196 | 53.20559 | 25486 ft | 479 kts | 104° |
| 2026-02-18 14:45 | 24.81321 | 53.24106 | 25670 ft | 480 kts | 104° |
| 2026-02-18 14:45 | 24.80446 | 53.27653 | 25861 ft | 482 kts | 104° |
| 2026-02-18 14:46 | 24.79563 | 53.31226 | 26045 ft | 483 kts | 104° |
| 2026-02-18 14:46 | 24.78680 | 53.34796 | 26235 ft | 485 kts | 104° |
| 2026-02-18 14:46 | 24.77791 | 53.38377 | 26423 ft | 486 kts | 104° |
| 2026-02-18 14:46 | 24.76897 | 53.41974 | 26592 ft | 488 kts | 104° |
| 2026-02-18 14:47 | 24.76005 | 53.45561 | 26785 ft | 489 kts | 104° |
| 2026-02-18 14:47 | 24.75106 | 53.49173 | 26968 ft | 490 kts | 104° |
| 2026-02-18 14:47 | 24.74205 | 53.52793 | 27119 ft | 492 kts | 104° |
| 2026-02-18 14:47 | 24.73299 | 53.56425 | 27285 ft | 494 kts | 104° |
| 2026-02-18 14:48 | 24.72393 | 53.60058 | 27465 ft | 495 kts | 105° |
| 2026-02-18 14:48 | 24.71477 | 53.63723 | 27614 ft | 496 kts | 105° |
| 2026-02-18 14:48 | 24.70561 | 53.67384 | 27801 ft | 497 kts | 105° |
| 2026-02-18 14:48 | 24.69641 | 53.71058 | 27918 ft | 500 kts | 105° |
| 2026-02-18 14:49 | 24.67787 | 53.78453 | 28241 ft | 502 kts | 105° |
| 2026-02-18 14:49 | 24.66871 | 53.82099 | 28390 ft | 503 kts | 105° |
| 2026-02-18 14:50 | 24.64997 | 53.89550 | 28597 ft | 507 kts | 105° |
| 2026-02-18 14:50 | 24.64056 | 53.93284 | 28754 ft | 507 kts | 105° |
| 2026-02-18 14:50 | 24.63189 | 53.96813 | 28915 ft | 508 kts | 104° |
| 2026-02-18 14:50 | 24.62333 | 54.00584 | 29021 ft | 509 kts | 103° |
| 2026-02-18 14:51 | 24.61514 | 54.04350 | 29320 ft | 506 kts | 103° |
| 2026-02-18 14:51 | 24.60702 | 54.08115 | 29509 ft | 506 kts | 103° |
| 2026-02-18 14:51 | 24.59885 | 54.11865 | 29768 ft | 504 kts | 104° |
| 2026-02-18 14:51 | 24.59059 | 54.15610 | 29911 ft | 505 kts | 104° |
| 2026-02-18 14:52 | 24.58222 | 54.19370 | 29965 ft | 508 kts | 104° |
| 2026-02-18 14:52 | 24.57377 | 54.23141 | 30087 ft | 508 kts | 104° |
| 2026-02-18 14:52 | 24.56532 | 54.26910 | 30223 ft | 509 kts | 104° |
| 2026-02-18 14:53 | 24.54258 | 54.37037 | 30450 ft | 512 kts | 104° |
| 2026-02-18 14:53 | 24.53353 | 54.41485 | 30566 ft | 512 kts | 102° |
| 2026-02-18 14:53 | 24.52692 | 54.45336 | 30608 ft | 514 kts | 101° |
| 2026-02-18 14:54 | 24.51290 | 54.53041 | 30780 ft | 515 kts | 105° |
| 2026-02-18 14:54 | 24.49036 | 54.60481 | 30852 ft | 516 kts | 111° |
| 2026-02-18 14:55 | 24.46569 | 54.67915 | 30974 ft | 518 kts | 111° |
| 2026-02-18 14:55 | 24.44132 | 54.75371 | 31061 ft | 520 kts | 110° |
| 2026-02-18 14:56 | 24.41704 | 54.82871 | 31098 ft | 523 kts | 111° |
| 2026-02-18 14:56 | 24.39298 | 54.90295 | 31128 ft | 525 kts | 111° |
| 2026-02-18 14:57 | 24.35611 | 55.01633 | 31243 ft | 527 kts | 111° |
| 2026-02-18 14:58 | 24.32797 | 55.09032 | 31315 ft | 525 kts | 119° |
| 2026-02-18 14:58 | 24.28953 | 55.15799 | 31379 ft | 524 kts | 125° |
| 2026-02-18 14:59 | 24.24929 | 55.22464 | 31441 ft | 525 kts | 125° |
| 2026-02-18 14:59 | 24.20949 | 55.29180 | 31510 ft | 525 kts | 124° |
| 2026-02-18 15:00 | 24.17758 | 55.34822 | 31564 ft | 527 kts | 120° |
| 2026-02-18 15:00 | 24.14287 | 55.43418 | 31612 ft | 529 kts | 114° |
| 2026-02-18 15:01 | 24.10535 | 55.53319 | 31687 ft | 529 kts | 115° |
| 2026-02-18 15:01 | 24.07661 | 55.60733 | 31731 ft | 529 kts | 115° |
| 2026-02-18 15:02 | 24.04582 | 55.68034 | 31765 ft | 528 kts | 119° |
| 2026-02-18 15:02 | 24.01159 | 55.75147 | 31790 ft | 529 kts | 120° |
| 2026-02-18 15:03 | 23.96021 | 55.85832 | 31883 ft | 529 kts | 120° |
| 2026-02-18 15:04 | 23.92598 | 55.92999 | 31923 ft | 529 kts | 120° |
| 2026-02-18 15:04 | 23.89189 | 56.00126 | 31953 ft | 529 kts | 120° |
| 2026-02-18 15:05 | 23.84163 | 56.10602 | 32014 ft | 530 kts | 120° |
| 2026-02-18 15:05 | 23.80738 | 56.17733 | 32066 ft | 529 kts | 120° |
| 2026-02-18 15:06 | 23.77314 | 56.24854 | 32104 ft | 530 kts | 120° |
| 2026-02-18 15:06 | 23.74143 | 56.31439 | 32126 ft | 530 kts | 120° |
| 2026-02-18 15:07 | 23.70715 | 56.38549 | 32152 ft | 529 kts | 120° |
| 2026-02-18 15:07 | 23.67281 | 56.45659 | 32184 ft | 529 kts | 120° |
| 2026-02-18 15:08 | 23.63867 | 56.52718 | 32208 ft | 529 kts | 120° |
| 2026-02-18 15:08 | 23.60431 | 56.59812 | 32225 ft | 529 kts | 120° |
| 2026-02-18 15:09 | 23.55258 | 56.70475 | 32260 ft | 529 kts | 120° |
| 2026-02-18 15:10 | 23.51811 | 56.77566 | 32283 ft | 530 kts | 120° |
| 2026-02-18 15:10 | 23.48360 | 56.84655 | 32313 ft | 529 kts | 120° |
| 2026-02-18 15:11 | 23.44911 | 56.91731 | 32384 ft | 529 kts | 120° |
| 2026-02-18 15:11 | 23.41461 | 56.98800 | 32458 ft | 528 kts | 120° |
| 2026-02-18 15:12 | 23.38012 | 57.05855 | 32485 ft | 528 kts | 120° |
| 2026-02-18 15:12 | 23.34670 | 57.12975 | 32513 ft | 528 kts | 118° |
| 2026-02-18 15:13 | 23.29884 | 57.23699 | 32612 ft | 527 kts | 117° |
| 2026-02-18 15:13 | 23.26663 | 57.30850 | 32662 ft | 526 kts | 118° |
| 2026-02-18 15:14 | 23.23422 | 57.37981 | 32696 ft | 526 kts | 118° |
| 2026-02-18 15:14 | 23.20176 | 57.45105 | 32718 ft | 526 kts | 118° |
| 2026-02-18 15:15 | 23.16933 | 57.52220 | 32739 ft | 525 kts | 118° |
| 2026-02-18 15:15 | 23.13686 | 57.59335 | 32756 ft | 525 kts | 118° |
| 2026-02-18 15:16 | 23.10437 | 57.66445 | 32771 ft | 525 kts | 118° |
| 2026-02-18 15:16 | 23.07191 | 57.73538 | 32792 ft | 525 kts | 118° |
| 2026-02-18 15:17 | 23.02313 | 57.84181 | 32829 ft | 524 kts | 118° |
| 2026-02-18 15:18 | 22.99063 | 57.91251 | 32840 ft | 524 kts | 118° |
| 2026-02-18 15:18 | 22.95808 | 57.98318 | 32847 ft | 523 kts | 118° |
| 2026-02-18 15:19 | 22.92550 | 58.05386 | 32860 ft | 523 kts | 118° |
| 2026-02-18 15:19 | 22.89291 | 58.12449 | 32852 ft | 524 kts | 118° |
| 2026-02-18 15:20 | 22.86029 | 58.19507 | 32866 ft | 523 kts | 118° |
| 2026-02-18 15:20 | 22.82769 | 58.26548 | 32870 ft | 523 kts | 118° |
| 2026-02-18 15:21 | 22.77865 | 58.37126 | 32910 ft | 522 kts | 118° |
| 2026-02-18 15:21 | 22.74600 | 58.44156 | 32868 ft | 523 kts | 118° |
| 2026-02-18 15:22 | 22.71353 | 58.51140 | 32870 ft | 523 kts | 118° |
| 2026-02-18 15:22 | 22.67817 | 58.57967 | 32826 ft | 520 kts | 129° |
| 2026-02-18 15:23 | 22.62738 | 58.63494 | 32822 ft | 516 kts | 144° |
| 2026-02-18 15:23 | 22.57127 | 58.67303 | 32810 ft | 514 kts | 150° |
| 2026-02-18 15:24 | 22.50964 | 58.71239 | 32810 ft | 514 kts | 150° |
| 2026-02-18 15:24 | 22.44838 | 58.75227 | 32809 ft | 514 kts | 149° |
| 2026-02-18 15:25 | 22.35678 | 58.81266 | 32818 ft | 515 kts | 149° |
| 2026-02-18 15:26 | 22.29563 | 58.85287 | 32875 ft | 514 kts | 149° |
| 2026-02-18 15:26 | 22.23449 | 58.89300 | 32851 ft | 514 kts | 149° |
| 2026-02-18 15:27 | 22.17334 | 58.93303 | 32876 ft | 514 kts | 149° |
| 2026-02-18 15:27 | 22.11219 | 58.97300 | 32936 ft | 513 kts | 149° |
| 2026-02-18 15:28 | 22.05110 | 59.01290 | 32918 ft | 514 kts | 149° |
| 2026-02-18 15:28 | 21.99071 | 59.05233 | 33070 ft | 511 kts | 149° |
| 2026-02-18 15:29 | 21.89918 | 59.11201 | 33062 ft | 511 kts | 149° |
| 2026-02-18 15:29 | 21.83826 | 59.15169 | 33078 ft | 511 kts | 149° |
| 2026-02-18 15:30 | 21.77755 | 59.19118 | 33049 ft | 512 kts | 149° |
| 2026-02-18 15:30 | 21.71659 | 59.23079 | 33090 ft | 511 kts | 149° |
| 2026-02-18 15:31 | 21.65564 | 59.27038 | 33070 ft | 512 kts | 149° |
| 2026-02-18 15:31 | 21.59466 | 59.30993 | 33041 ft | 513 kts | 149° |
| 2026-02-18 15:32 | 21.53386 | 59.34938 | 33080 ft | 512 kts | 149° |
| 2026-02-18 15:32 | 21.47286 | 59.38896 | 33015 ft | 513 kts | 149° |
| 2026-02-18 15:33 | 21.38123 | 59.44833 | 33059 ft | 513 kts | 149° |
| 2026-02-18 15:34 | 21.32001 | 59.48795 | 33033 ft | 513 kts | 149° |
| 2026-02-18 15:34 | 21.25901 | 59.52739 | 33046 ft | 513 kts | 149° |
| 2026-02-18 15:35 | 21.19778 | 59.56695 | 33054 ft | 513 kts | 149° |
| 2026-02-18 15:35 | 21.13664 | 59.60643 | 33031 ft | 513 kts | 149° |
| 2026-02-18 15:36 | 21.07550 | 59.64589 | 33026 ft | 514 kts | 149° |
| 2026-02-18 15:36 | 21.01420 | 59.68542 | 33055 ft | 513 kts | 148° |
| 2026-02-18 15:37 | 20.92265 | 59.74419 | 33004 ft | 515 kts | 149° |
| 2026-02-18 15:37 | 20.86105 | 59.78362 | 32993 ft | 515 kts | 149° |
| 2026-02-18 15:38 | 20.79939 | 59.82309 | 32950 ft | 516 kts | 149° |
| 2026-02-18 15:38 | 20.73764 | 59.86259 | 32911 ft | 517 kts | 149° |
| 2026-02-18 15:39 | 20.67610 | 59.90193 | 32951 ft | 517 kts | 149° |
| 2026-02-18 15:39 | 20.61444 | 59.94129 | 32964 ft | 516 kts | 149° |
| 2026-02-18 15:40 | 20.55262 | 59.98072 | 32951 ft | 517 kts | 149° |
| 2026-02-18 15:40 | 20.49113 | 60.01991 | 32911 ft | 518 kts | 149° |
| 2026-02-18 15:41 | 20.39830 | 60.07900 | 32949 ft | 518 kts | 149° |
| 2026-02-18 15:42 | 20.33642 | 60.11834 | 32947 ft | 518 kts | 149° |
| 2026-02-18 15:42 | 20.27438 | 60.15775 | 32937 ft | 519 kts | 149° |
| 2026-02-18 15:43 | 20.21231 | 60.19714 | 32903 ft | 520 kts | 149° |
| 2026-02-18 15:43 | 20.15019 | 60.23653 | 32905 ft | 520 kts | 149° |
| 2026-02-18 15:44 | 20.08801 | 60.27593 | 32891 ft | 521 kts | 149° |
| 2026-02-18 15:44 | 20.02827 | 60.31944 | 32879 ft | 521 kts | 139° |
| 2026-02-18 15:45 | 19.94752 | 60.39692 | 32851 ft | 522 kts | 138° |
| 2026-02-18 15:45 | 19.90274 | 60.43994 | 32856 ft | 523 kts | 138° |
| 2026-02-18 15:46 | 19.82146 | 60.51729 | 32890 ft | 523 kts | 139° |
| 2026-02-18 15:47 | 19.76713 | 60.56877 | 32874 ft | 524 kts | 139° |
| 2026-02-18 15:47 | 19.71271 | 60.62031 | 32885 ft | 524 kts | 139° |
| 2026-02-18 15:48 | 19.65830 | 60.67182 | 32853 ft | 525 kts | 139° |
| 2026-02-18 15:48 | 19.60369 | 60.72347 | 32836 ft | 526 kts | 139° |
| 2026-02-18 15:49 | 19.52166 | 60.80097 | 32877 ft | 526 kts | 139° |
| 2026-02-18 15:49 | 19.46692 | 60.85262 | 32874 ft | 527 kts | 139° |
| 2026-02-18 15:50 | 19.41218 | 60.90422 | 32847 ft | 527 kts | 140° |
| 2026-02-18 15:50 | 19.35737 | 60.95584 | 32867 ft | 528 kts | 140° |
| 2026-02-18 15:51 | 19.30233 | 61.00763 | 32836 ft | 529 kts | 140° |
| 2026-02-18 15:51 | 19.24725 | 61.05940 | 32836 ft | 530 kts | 140° |
| 2026-02-18 15:52 | 19.19213 | 61.11117 | 32834 ft | 530 kts | 140° |
| 2026-02-18 15:52 | 19.13692 | 61.16297 | 32837 ft | 530 kts | 141° |
| 2026-02-18 15:53 | 19.05392 | 61.24076 | 32859 ft | 531 kts | 141° |
| 2026-02-18 15:54 | 18.99854 | 61.29259 | 32833 ft | 532 kts | 141° |
| 2026-02-18 15:54 | 18.94312 | 61.34443 | 32872 ft | 532 kts | 141° |
| 2026-02-18 15:55 | 18.88803 | 61.39589 | 32887 ft | 532 kts | 141° |
| 2026-02-18 15:55 | 18.83251 | 61.44773 | 32910 ft | 532 kts | 141° |
| 2026-02-18 15:56 | 18.77700 | 61.49949 | 32929 ft | 532 kts | 141° |
| 2026-02-18 15:56 | 18.72147 | 61.55124 | 32953 ft | 532 kts | 141° |
| 2026-02-18 15:57 | 18.64178 | 61.62541 | 32962 ft | 533 kts | 141° |
| 2026-02-18 15:57 | 18.58870 | 61.67476 | 32986 ft | 533 kts | 142° |
| 2026-02-18 15:58 | 18.53281 | 61.72668 | 32974 ft | 533 kts | 142° |
| 2026-02-18 15:58 | 18.47711 | 61.77838 | 33017 ft | 533 kts | 142° |
| 2026-02-18 15:59 | 18.42141 | 61.83003 | 33027 ft | 533 kts | 142° |
| 2026-02-18 15:59 | 18.36580 | 61.88154 | 33047 ft | 533 kts | 142° |
| 2026-02-18 16:00 | 18.31054 | 61.93269 | 33057 ft | 533 kts | 142° |
| 2026-02-18 16:00 | 18.25491 | 61.98413 | 33089 ft | 532 kts | 142° |
| 2026-02-18 16:01 | 18.17131 | 62.06136 | 33108 ft | 532 kts | 142° |
| 2026-02-18 16:02 | 18.11565 | 62.11271 | 33112 ft | 532 kts | 142° |
| 2026-02-18 16:02 | 18.05993 | 62.16409 | 33131 ft | 532 kts | 142° |
| 2026-02-18 16:03 | 18.00423 | 62.21540 | 33138 ft | 532 kts | 142° |
| 2026-02-18 16:03 | 17.94893 | 62.26629 | 33145 ft | 532 kts | 142° |
| 2026-02-18 16:04 | 17.89322 | 62.31751 | 33162 ft | 532 kts | 142° |
| 2026-02-18 16:04 | 17.83752 | 62.36868 | 33175 ft | 532 kts | 142° |
| 2026-02-18 16:05 | 17.75396 | 62.44537 | 33197 ft | 532 kts | 142° |
| 2026-02-18 16:05 | 17.69828 | 62.49642 | 33193 ft | 532 kts | 141° |
| 2026-02-18 16:06 | 17.64256 | 62.54745 | 33209 ft | 531 kts | 141° |
| 2026-02-18 16:06 | 17.58688 | 62.59841 | 33217 ft | 531 kts | 141° |
| 2026-02-18 16:07 | 17.53116 | 62.64936 | 33235 ft | 531 kts | 141° |
| 2026-02-18 16:07 | 17.47538 | 62.70032 | 33228 ft | 531 kts | 141° |
| 2026-02-18 16:08 | 17.44750 | 62.72578 | 33237 ft | 531 kts | 141° |